Big Piney, WY weather

Big Piney-Marbleton Airport (AMOS), Big Piney, WY: 7/23/2014 17:53
Visibility10 statute milesclear sky
View 7-Day Forecast
Area Summary
Sky/CloudsSky Clear
Weather [last 24 hours]None
Pressure30.26 in.Hg (1025 hPa)
3-hour Pressure Tendency0.0561 in.Hg (1.9 hPa) Decreasing, then steady, or decreasing then decreasing more slowly
Dew Point33.1 F (0.6 C)
Relative Humidity13.7 %
Temperature89.1 F (31.7 C)red thermometer
Reading TimeMinimum to Maximum Temperature
6-hr ending 7/23@17:5382.9 F to 91.9 F (28.3 C to 33.3 C)
6-hr ending 7/23@11:5342.1 F to 82.9 F (5.6 C to 28.3 C)
6-hr ending 7/23@05:5342.1 F to 57 F (5.6 C to 13.9 C)
6-hr ending 7/22@23:5355 F to 87.1 F (12.8 C to 30.6 C)
24-hr ending 7/23@00:5344.1 F to 88 F (6.7 C to 31.1 C)
Wind10.4 MPH (9 KT) green arrow pointing 270 degrees
Wind FromWest (280 Degrees)
Twilight Begins05:31Sunshine Yesterday
Sunrise06:04N/A
Sunset20:49
Twilight Ends21:22
METARKBPI 232353Z AUTO 28009KT 10SM CLR 32/01 A3026 RMK AO2 SLP144 T03170006 10333 20283 56019
Tags: